Time;durP1;ratioP1;P1;durP2;ratioP2;P2;SDS_P1;SDS_P2;PMS_P1;PMS_P2;Temp;Humidity;BMP_temperature;BMP_pressure;BME280_temperature;BME280_humidity;BME280_pressure;Samples;Min_cycle;Max_cycle;Signal;HPM_P1;HPM_P2
2021/12/23 00:00:11;;;;;;;17.47;8.17;;;-1.10;99.90;;;;;;4166260;28;20466;-77
2021/12/23 00:02:13;;;;;;;17.03;7.90;;;-1.00;99.90;;;;;;4161236;28;20540;-76
2021/12/23 00:04:15;;;;;;;17.80;7.57;;;-1.10;99.90;;;;;;4161351;28;20504;-74
2021/12/23 00:06:17;;;;;;;16.87;8.00;;;-1.10;99.90;;;;;;4166190;28;20609;-74
2021/12/23 00:08:20;;;;;;;17.67;8.00;;;-1.10;99.90;;;;;;4165148;28;20527;-73
2021/12/23 00:10:21;;;;;;;17.77;8.40;;;-1.10;99.90;;;;;;4156869;28;20472;-74
2021/12/23 00:12:23;;;;;;;17.43;7.83;;;-1.10;99.90;;;;;;4152402;28;20490;-74
2021/12/23 00:14:25;;;;;;;17.20;7.50;;;-1.10;99.90;;;;;;4158798;28;20484;-77
2021/12/23 00:16:41;;;;;;;16.10;7.77;;;-1.10;99.90;;;;;;4165676;28;20462;-74
2021/12/23 00:18:52;;;;;;;18.93;8.00;;;-1.10;99.90;;;;;;4159499;28;20466;-74
2021/12/23 00:23:25;;;;;;;17.97;6.80;;;-1.10;99.90;;;;;;4165762;28;20537;-76
2021/12/23 00:25:28;;;;;;;15.23;7.47;;;-1.10;99.90;;;;;;4162101;28;20462;-73
2021/12/23 00:27:30;;;;;;;18.87;7.93;;;-1.10;99.90;;;;;;4159687;28;20991;-74
2021/12/23 00:29:33;;;;;;;15.80;7.70;;;-1.10;99.90;;;;;;4165347;28;20530;-75
2021/12/23 00:31:34;;;;;;;19.50;8.50;;;-1.10;99.90;;;;;;4165012;28;21030;-74
2021/12/23 00:33:39;;;;;;;18.07;7.87;;;-1.10;99.90;;;;;;4165678;28;20489;-76
2021/12/23 00:35:40;;;;;;;17.07;7.20;;;-1.10;99.90;;;;;;4165988;28;20468;-74
2021/12/23 00:37:45;;;;;;;17.20;8.13;;;-1.10;99.90;;;;;;4152712;28;20478;-73
2021/12/23 00:39:47;;;;;;;17.63;8.03;;;-1.10;99.90;;;;;;4156853;28;20862;-74
2021/12/23 00:41:51;;;;;;;18.60;8.10;;;-1.10;99.90;;;;;;4165943;28;20473;-74
2021/12/23 00:43:53;;;;;;;17.57;8.00;;;-1.20;99.90;;;;;;4165328;28;20474;-74
2021/12/23 00:45:55;;;;;;;17.23;7.07;;;-1.20;99.90;;;;;;4163853;28;20473;-74
2021/12/23 00:47:57;;;;;;;16.47;7.27;;;-1.20;99.90;;;;;;4164450;28;20943;-74
2021/12/23 00:49:59;;;;;;;13.53;7.10;;;-1.20;99.90;;;;;;4160145;28;20869;-76
2021/12/23 00:52:03;;;;;;;17.73;7.43;;;-1.20;99.90;;;;;;4165785;28;21114;-73
2021/12/23 00:54:05;;;;;;;14.82;7.82;;;-1.20;99.90;;;;;;4158884;28;20495;-74
2021/12/23 00:56:09;;;;;;;17.17;7.50;;;-1.20;99.90;;;;;;4164736;28;20265;-73
2021/12/23 00:58:12;;;;;;;18.60;8.57;;;-1.20;99.90;;;;;;4163174;28;20211;-74
2021/12/23 01:00:16;;;;;;;17.53;8.07;;;-1.20;99.90;;;;;;4165674;28;20458;-73
2021/12/23 01:02:18;;;;;;;15.67;7.97;;;-1.20;99.90;;;;;;4155122;28;20493;-73
2021/12/23 01:04:19;;;;;;;18.70;7.93;;;-1.20;99.90;;;;;;4163842;28;20474;-74
2021/12/23 01:06:21;;;;;;;18.33;8.23;;;-1.20;99.90;;;;;;4165820;28;20462;-75
2021/12/23 01:08:23;;;;;;;15.90;8.07;;;-1.20;99.90;;;;;;4162069;28;20508;-74
2021/12/23 01:10:26;;;;;;;18.30;8.67;;;-1.20;99.90;;;;;;4164767;28;20465;-73
2021/12/23 01:12:34;;;;;;;18.47;8.80;;;-1.20;99.90;;;;;;4161813;28;20505;-74
2021/12/23 01:14:43;;;;;;;17.33;8.32;;;-1.30;99.90;;;;;;4163169;28;20493;-74
2021/12/23 01:17:11;;;;;;;17.83;7.63;;;-1.30;99.90;;;;;;4165108;28;20688;-74
2021/12/23 01:19:12;;;;;;;18.83;8.43;;;-1.30;99.90;;;;;;4164079;28;20482;-74
2021/12/23 01:21:17;;;;;;;19.43;8.50;;;-1.30;99.90;;;;;;4155959;28;20211;-73
2021/12/23 01:23:21;;;;;;;17.60;7.70;;;-1.30;99.90;;;;;;4164689;28;20548;-74
2021/12/23 01:25:23;;;;;;;18.40;8.17;;;-1.30;99.90;;;;;;4164615;28;20512;-74
2021/12/23 01:27:25;;;;;;;18.73;7.88;;;-1.30;99.90;;;;;;4165189;28;20531;-73
2021/12/23 01:29:27;;;;;;;17.63;7.53;;;-1.30;99.90;;;;;;4163430;28;20213;-73
2021/12/23 01:31:32;;;;;;;18.20;7.40;;;-1.30;99.90;;;;;;4163983;28;20520;-73
2021/12/23 01:33:34;;;;;;;18.35;7.90;;;-1.30;99.90;;;;;;4167432;22;20513;-78
2021/12/23 01:35:37;;;;;;;19.33;8.27;;;-1.30;99.90;;;;;;4148940;28;20258;-79
2021/12/23 01:37:39;;;;;;;14.27;6.83;;;-1.30;99.90;;;;;;4144274;28;20945;-78
2021/12/23 01:39:40;;;;;;;17.37;7.53;;;-1.30;99.90;;;;;;4141547;28;20451;-79
2021/12/23 01:41:42;;;;;;;15.47;7.60;;;-1.30;99.90;;;;;;4149245;28;20435;-78
2021/12/23 01:43:44;;;;;;;15.07;7.70;;;-1.30;99.90;;;;;;4150154;28;20974;-79
2021/12/23 01:45:48;;;;;;;17.02;7.88;;;-1.30;99.90;;;;;;4153592;28;20251;-79
2021/12/23 01:47:51;;;;;;;15.88;7.60;;;-1.30;99.90;;;;;;4150514;28;20215;-79
2021/12/23 01:49:53;;;;;;;14.27;7.20;;;-1.30;99.90;;;;;;4150033;28;20278;-79
2021/12/23 01:51:55;;;;;;;16.30;7.87;;;-1.30;99.90;;;;;;4148519;28;20520;-79
2021/12/23 01:53:56;;;;;;;15.60;7.03;;;-1.30;99.90;;;;;;4148762;28;20625;-78
2021/12/23 01:55:59;;;;;;;15.07;8.00;;;-1.30;99.90;;;;;;4138866;28;20274;-79
2021/12/23 01:58:01;;;;;;;17.73;8.02;;;-1.20;99.90;;;;;;4150905;28;20215;-79
2021/12/23 02:00:09;;;;;;;16.58;8.38;;;-1.30;99.90;;;;;;4152929;28;20212;-79
2021/12/23 02:02:12;;;;;;;17.17;7.83;;;-1.30;99.90;;;;;;4147769;28;20211;-80
2021/12/23 02:04:15;;;;;;;14.27;7.20;;;-1.20;99.90;;;;;;4146801;28;20550;-78
2021/12/23 02:06:17;;;;;;;17.27;7.77;;;-1.30;99.90;;;;;;4140135;28;20467;-79
2021/12/23 02:08:18;;;;;;;15.43;7.10;;;-1.30;99.90;;;;;;4148400;28;20454;-79
2021/12/23 02:10:20;;;;;;;19.93;7.57;;;-1.30;99.90;;;;;;4147093;28;20478;-79
2021/12/23 02:12:22;;;;;;;16.87;7.57;;;-1.30;99.90;;;;;;4144931;28;22180;-79
2021/12/23 02:14:24;;;;;;;16.97;8.00;;;-1.30;99.90;;;;;;4135121;28;20497;-78
2021/12/23 02:16:26;;;;;;;14.47;7.77;;;-1.30;99.90;;;;;;4154432;28;20473;-79
2021/12/23 02:18:28;;;;;;;16.73;7.67;;;-1.30;99.90;;;;;;4154130;28;20501;-80
2021/12/23 02:20:33;;;;;;;17.20;7.67;;;-1.30;99.90;;;;;;4145877;28;20607;-79
2021/12/23 02:22:35;;;;;;;17.27;8.27;;;-1.30;99.90;;;;;;4148188;28;20490;-79
2021/12/23 02:24:38;;;;;;;17.83;7.97;;;-1.30;99.90;;;;;;4147778;28;20458;-79
2021/12/23 02:26:40;;;;;;;15.77;7.10;;;-1.30;99.90;;;;;;4147792;28;20517;-79
2021/12/23 02:28:41;;;;;;;16.77;7.82;;;-1.30;99.90;;;;;;4144643;28;20274;-78
2021/12/23 02:30:43;;;;;;;17.70;7.43;;;-1.30;99.90;;;;;;4132993;28;20211;-79
2021/12/23 02:32:45;;;;;;;16.80;7.32;;;-1.30;99.90;;;;;;4147770;28;20482;-79
2021/12/23 02:34:47;;;;;;;15.80;6.93;;;-1.30;99.90;;;;;;4147444;28;20692;-78
2021/12/23 02:36:52;;;;;;;17.63;7.63;;;-1.30;99.90;;;;;;4140354;28;20456;-79
2021/12/23 02:38:54;;;;;;;16.00;7.70;;;-1.30;99.90;;;;;;4137267;28;20815;-80
2021/12/23 02:40:56;;;;;;;14.77;7.40;;;-1.30;99.90;;;;;;4146934;28;20471;-79
2021/12/23 02:43:08;;;;;;;13.77;7.13;;;-1.30;99.90;;;;;;4148238;28;20609;-78
2021/12/23 02:45:10;;;;;;;17.67;7.53;;;-1.30;99.90;;;;;;4147214;28;20860;-78
2021/12/23 02:47:12;;;;;;;14.20;7.00;;;-1.30;99.90;;;;;;4140726;28;20211;-79
2021/12/23 02:49:14;;;;;;;17.00;7.40;;;-1.40;99.90;;;;;;4139126;28;20502;-79
2021/12/23 02:51:17;;;;;;;17.00;7.47;;;-1.30;99.90;;;;;;4146851;28;20459;-78
2021/12/23 02:53:21;;;;;;;17.23;7.53;;;-1.40;99.90;;;;;;4146878;28;20459;-79
2021/12/23 02:55:22;;;;;;;16.17;7.30;;;-1.40;99.90;;;;;;4141996;28;20236;-79
2021/12/23 02:57:25;;;;;;;15.73;7.87;;;-1.40;99.90;;;;;;4147601;28;20218;-79
2021/12/23 02:59:26;;;;;;;14.57;7.23;;;-1.40;99.90;;;;;;4157650;28;20466;-79
2021/12/23 03:01:28;;;;;;;17.70;8.27;;;-1.40;99.90;;;;;;4147278;28;20467;-79
2021/12/23 03:03:30;;;;;;;16.77;7.93;;;-1.40;99.90;;;;;;4147236;28;20228;-79
2021/12/23 03:05:32;;;;;;;17.50;7.37;;;-1.40;99.90;;;;;;4146458;28;20509;-78
2021/12/23 03:07:33;;;;;;;20.10;7.87;;;-1.40;99.90;;;;;;4145381;28;20513;-79
2021/12/23 03:09:37;;;;;;;15.87;7.33;;;-1.40;99.90;;;;;;4140889;28;20485;-79
2021/12/23 03:11:40;;;;;;;15.90;7.10;;;-1.40;99.90;;;;;;4146752;28;20431;-78
2021/12/23 03:13:42;;;;;;;15.33;7.27;;;-1.40;99.90;;;;;;4145531;28;20491;-78
2021/12/23 03:15:44;;;;;;;14.97;7.53;;;-1.40;99.90;;;;;;4146232;28;20502;-79
2021/12/23 03:17:46;;;;;;;14.77;6.50;;;-1.40;99.90;;;;;;4146436;28;20470;-79
2021/12/23 03:19:47;;;;;;;16.27;7.50;;;-1.40;99.90;;;;;;4143272;28;20458;-79
2021/12/23 03:21:49;;;;;;;17.03;7.40;;;-1.40;99.90;;;;;;4133643;28;20447;-78
2021/12/23 03:23:51;;;;;;;16.43;7.57;;;-1.40;99.90;;;;;;4147456;28;20475;-78
2021/12/23 03:25:55;;;;;;;19.70;7.88;;;-1.40;99.90;;;;;;4147553;28;20834;-78
2021/12/23 03:27:57;;;;;;;15.20;7.70;;;-1.40;99.90;;;;;;4147255;28;20622;-78
2021/12/23 03:29:58;;;;;;;14.07;6.60;;;-1.40;99.90;;;;;;4141876;28;20537;-78
2021/12/23 03:32:00;;;;;;;18.53;7.70;;;-1.40;99.90;;;;;;4146907;28;20837;-79
2021/12/23 03:34:02;;;;;;;15.88;7.47;;;-1.40;99.90;;;;;;4151816;28;20498;-79
2021/12/23 03:36:05;;;;;;;15.73;6.85;;;-1.40;99.90;;;;;;4150097;28;20235;-79
2021/12/23 03:38:07;;;;;;;13.10;6.40;;;-1.40;99.90;;;;;;4146478;28;20305;-79
2021/12/23 03:40:10;;;;;;;17.13;7.47;;;-1.40;99.90;;;;;;4139607;28;20475;-79
2021/12/23 03:42:14;;;;;;;15.83;7.50;;;-1.40;99.90;;;;;;4147401;28;20207;-79
2021/12/23 03:44:16;;;;;;;15.57;7.40;;;-1.40;99.90;;;;;;4146654;28;20447;-78
2021/12/23 03:46:17;;;;;;;15.82;7.45;;;-1.40;99.90;;;;;;4146496;28;20505;-79
2021/12/23 03:48:19;;;;;;;17.90;7.13;;;-1.30;99.90;;;;;;4144616;28;20215;-79
2021/12/23 03:50:24;;;;;;;15.77;7.40;;;-1.30;99.90;;;;;;4146756;28;20208;-79
2021/12/23 03:52:26;;;;;;;15.60;7.80;;;-1.30;99.90;;;;;;4146712;28;20297;-79
2021/12/23 03:54:28;;;;;;;16.30;7.25;;;-1.30;99.90;;;;;;4147525;28;20458;-79
2021/12/23 03:56:30;;;;;;;14.20;6.30;;;-1.30;99.90;;;;;;4143641;28;20213;-79
2021/12/23 03:58:33;;;;;;;13.20;6.87;;;-1.30;99.90;;;;;;4140560;28;20542;-80
2021/12/23 04:00:34;;;;;;;14.60;6.50;;;-1.30;99.90;;;;;;4152073;28;20531;-79
2021/12/23 04:02:36;;;;;;;15.80;7.20;;;-1.30;99.90;;;;;;4147544;28;20544;-80
2021/12/23 04:04:39;;;;;;;15.50;7.10;;;-1.30;99.90;;;;;;4148599;28;20485;-80
2021/12/23 04:06:40;;;;;;;15.70;6.43;;;-1.30;99.90;;;;;;4141672;28;20921;-80
2021/12/23 04:08:42;;;;;;;14.13;6.63;;;-1.20;99.90;;;;;;4135747;28;20997;-80
2021/12/23 04:10:44;;;;;;;15.77;6.97;;;-1.30;99.90;;;;;;4132598;28;20569;-80
2021/12/23 04:12:46;;;;;;;16.93;7.57;;;-1.20;99.90;;;;;;4147253;28;20914;-79
2021/12/23 04:14:49;;;;;;;16.67;7.87;;;-1.20;99.90;;;;;;4148083;28;20954;-80
2021/12/23 04:16:51;;;;;;;17.90;8.13;;;-1.20;99.90;;;;;;4141462;28;20471;-80
2021/12/23 04:18:54;;;;;;;14.50;6.90;;;-1.20;99.90;;;;;;4150441;28;20476;-80
2021/12/23 04:20:56;;;;;;;14.77;7.50;;;-1.20;99.90;;;;;;4149893;28;20463;-80
2021/12/23 04:22:57;;;;;;;16.43;7.17;;;-1.20;99.90;;;;;;4148990;28;20467;-80
2021/12/23 04:24:59;;;;;;;19.03;8.20;;;-1.20;99.90;;;;;;4147373;28;20467;-80
2021/12/23 04:27:01;;;;;;;16.07;7.50;;;-1.20;99.90;;;;;;4148998;28;20839;-80
2021/12/23 04:29:05;;;;;;;16.17;7.67;;;-1.20;99.90;;;;;;4149019;28;20506;-80
2021/12/23 04:31:08;;;;;;;16.43;7.30;;;-1.20;99.90;;;;;;4148337;28;20878;-80
2021/12/23 04:33:10;;;;;;;14.63;6.87;;;-1.10;99.90;;;;;;4147212;28;20494;-79
2021/12/23 04:35:12;;;;;;;16.23;6.88;;;-1.20;99.90;;;;;;4146197;28;20525;-79
2021/12/23 04:37:14;;;;;;;14.30;7.00;;;-1.20;99.90;;;;;;4148648;28;20208;-79
2021/12/23 04:39:16;;;;;;;13.40;6.47;;;-1.20;99.90;;;;;;4148277;28;20888;-80
2021/12/23 04:41:18;;;;;;;16.80;7.63;;;-1.20;99.90;;;;;;4149558;28;20481;-79
2021/12/23 04:43:19;;;;;;;16.30;7.37;;;-1.20;99.90;;;;;;4147993;28;20522;-80
2021/12/23 04:45:21;;;;;;;19.57;7.93;;;-1.10;99.90;;;;;;4145312;28;20446;-80
2021/12/23 04:47:24;;;;;;;17.00;7.70;;;-1.10;99.90;;;;;;4150654;28;20466;-80
2021/12/23 04:49:26;;;;;;;16.70;7.60;;;-1.10;99.90;;;;;;4150630;28;20482;-80
2021/12/23 04:51:27;;;;;;;17.43;7.83;;;-1.10;99.90;;;;;;4151099;28;20461;-79
2021/12/23 04:53:30;;;;;;;14.93;6.97;;;-1.10;99.90;;;;;;4142554;28;20542;-80
2021/12/23 04:55:31;;;;;;;13.87;6.67;;;-1.10;99.90;;;;;;4138836;28;20548;-79
2021/12/23 04:57:33;;;;;;;18.67;7.00;;;-1.10;99.90;;;;;;4152483;28;20454;-80
2021/12/23 04:59:35;;;;;;;18.67;7.00;;;-1.10;99.90;;;;;;4152996;28;20532;-80
2021/12/23 05:01:37;;;;;;;16.07;6.90;;;-1.00;99.90;;;;;;4148061;28;20478;-80
2021/12/23 05:03:40;;;;;;;16.13;7.90;;;-1.00;99.90;;;;;;4153018;28;20856;-79
2021/12/23 05:05:41;;;;;;;14.50;7.33;;;-1.00;99.90;;;;;;4151240;28;20834;-80
2021/12/23 05:07:44;;;;;;;14.17;6.43;;;-1.00;99.90;;;;;;4152830;28;20463;-80
2021/12/23 05:09:46;;;;;;;19.57;7.40;;;-1.00;99.90;;;;;;4146320;28;20851;-79
2021/12/23 05:11:48;;;;;;;13.70;7.13;;;-0.90;99.90;;;;;;4143316;28;20873;-80
2021/12/23 05:13:49;;;;;;;15.67;6.87;;;-0.90;99.90;;;;;;4139549;28;20816;-79
2021/12/23 05:15:51;;;;;;;16.33;7.43;;;-0.90;99.90;;;;;;4156541;28;20490;-80
2021/12/23 05:17:53;;;;;;;17.33;7.40;;;-0.90;99.90;;;;;;4151578;28;20454;-80
2021/12/23 05:19:56;;;;;;;18.77;6.80;;;-0.90;99.90;;;;;;4147328;28;20471;-80
2021/12/23 05:21:57;;;;;;;18.65;7.22;;;-0.90;99.90;;;;;;4145932;28;20475;-80
2021/12/23 05:23:59;;;;;;;15.23;6.73;;;-0.90;99.90;;;;;;4145267;28;20603;-79
2021/12/23 05:26:06;;;;;;;13.23;6.67;;;-0.90;99.90;;;;;;4138293;28;20468;-80
2021/12/23 05:28:07;;;;;;;15.77;7.37;;;-0.80;99.90;;;;;;4152813;28;20465;-77
2021/12/23 05:30:12;;;;;;;15.97;7.30;;;-0.80;99.90;;;;;;4152071;28;20876;-79
2021/12/23 05:32:15;;;;;;;14.83;7.03;;;-0.90;99.90;;;;;;4152538;28;20855;-80
2021/12/23 05:34:16;;;;;;;13.17;6.13;;;-0.80;99.90;;;;;;4153186;28;20470;-80
2021/12/23 05:36:19;;;;;;;14.40;6.60;;;-0.90;99.90;;;;;;4153664;28;20919;-79
2021/12/23 05:38:21;;;;;;;13.47;6.30;;;-0.80;99.90;;;;;;4156418;28;20483;-80
2021/12/23 05:40:25;;;;;;;13.93;6.33;;;-0.80;99.90;;;;;;4160042;28;20478;-79
2021/12/23 05:42:26;;;;;;;15.77;7.10;;;-0.80;99.90;;;;;;4155072;28;20478;-80
2021/12/23 05:44:28;;;;;;;15.10;7.43;;;-0.80;99.90;;;;;;4164643;28;20459;-78
2021/12/23 05:46:30;;;;;;;15.70;7.13;;;-0.80;99.90;;;;;;4162308;28;20478;-77
2021/12/23 05:48:31;;;;;;;13.00;6.30;;;-0.80;99.90;;;;;;4159779;28;20472;-79
2021/12/23 05:50:33;;;;;;;16.47;7.20;;;-0.80;99.90;;;;;;4164527;28;20486;-80
2021/12/23 05:52:37;;;;;;;15.67;7.33;;;-0.80;99.90;;;;;;4151606;28;20987;-81
2021/12/23 05:54:38;;;;;;;15.23;6.40;;;-0.80;99.90;;;;;;4150839;28;20463;-79
2021/12/23 05:56:40;;;;;;;12.57;6.40;;;-0.80;99.90;;;;;;4149202;28;20494;-78
2021/12/23 05:58:42;;;;;;;14.63;6.53;;;-0.80;99.90;;;;;;4140269;28;20558;-84
2021/12/23 06:00:44;;;;;;;13.70;6.80;;;-0.80;99.90;;;;;;4145031;28;20472;-82
2021/12/23 06:02:47;;;;;;;15.53;6.60;;;-0.70;99.90;;;;;;4147903;28;21078;-79
2021/12/23 06:04:48;;;;;;;15.67;6.57;;;-0.80;99.90;;;;;;4145231;28;20474;-80
2021/12/23 06:06:50;;;;;;;15.47;6.33;;;-0.80;99.90;;;;;;4146344;28;20543;-78
2021/12/23 06:08:53;;;;;;;13.73;6.67;;;-0.80;99.90;;;;;;4144859;28;20951;-79
2021/12/23 06:10:55;;;;;;;12.30;6.27;;;-0.70;99.90;;;;;;4146930;28;20491;-79
2021/12/23 06:12:57;;;;;;;14.60;6.77;;;-0.80;99.90;;;;;;4145781;28;20980;-80
2021/12/23 06:14:58;;;;;;;14.80;6.93;;;-0.80;99.90;;;;;;4144147;28;20451;-80
2021/12/23 06:17:01;;;;;;;12.47;6.70;;;-0.70;99.90;;;;;;4143777;28;20486;-80
2021/12/23 06:19:03;;;;;;;14.43;6.87;;;-0.70;99.90;;;;;;4144142;28;20553;-81
2021/12/23 06:21:05;;;;;;;15.07;6.37;;;-0.70;99.90;;;;;;4144300;28;20811;-80
2021/12/23 06:23:06;;;;;;;15.63;6.93;;;-0.70;99.90;;;;;;4143551;28;20538;-79
2021/12/23 06:25:12;;;;;;;14.07;6.67;;;-0.80;99.90;;;;;;4143883;28;20474;-79
2021/12/23 06:27:14;;;;;;;14.87;7.47;;;-0.70;99.90;;;;;;4146859;28;20528;-80
2021/12/23 06:29:16;;;;;;;12.00;6.37;;;-0.70;99.90;;;;;;4146294;28;20508;-79
2021/12/23 06:31:17;;;;;;;13.33;6.93;;;-0.70;99.90;;;;;;4145850;28;20451;-80
2021/12/23 06:33:19;;;;;;;16.97;7.73;;;-0.70;99.90;;;;;;4143033;28;20503;-79
2021/12/23 06:35:27;;;;;;;12.50;6.63;;;-0.60;99.90;;;;;;4145565;28;20531;-79
2021/12/23 06:37:28;;;;;;;17.10;7.53;;;-0.60;99.90;;;;;;4144213;28;20446;-79
2021/12/23 06:39:31;;;;;;;15.97;6.73;;;-0.60;99.90;;;;;;4145906;28;20471;-79
2021/12/23 06:41:34;;;;;;;15.43;6.70;;;-0.60;99.90;;;;;;4142458;28;20455;-79
2021/12/23 06:43:36;;;;;;;15.23;6.87;;;-0.60;99.90;;;;;;4141317;28;20502;-80
2021/12/23 06:45:38;;;;;;;12.93;6.23;;;-0.60;99.90;;;;;;4142966;28;20876;-80
2021/12/23 06:47:40;;;;;;;12.90;6.50;;;-0.60;99.90;;;;;;4141036;28;21030;-82
2021/12/23 06:49:41;;;;;;;14.57;5.93;;;-0.60;99.90;;;;;;4144822;28;20797;-80
2021/12/23 06:51:44;;;;;;;12.77;6.17;;;-0.60;99.90;;;;;;4143438;28;20826;-79
2021/12/23 06:53:46;;;;;;;13.70;6.50;;;-0.50;99.90;;;;;;4142722;28;20517;-82
2021/12/23 06:55:50;;;;;;;14.33;6.60;;;-0.50;99.90;;;;;;4142530;28;20498;-81
2021/12/23 06:57:56;;;;;;;15.40;6.43;;;-0.50;99.90;;;;;;4142912;28;20607;-80
2021/12/23 06:59:58;;;;;;;12.37;6.50;;;-0.50;99.90;;;;;;4137622;28;20477;-85
2021/12/23 07:01:59;;;;;;;11.23;5.83;;;-0.50;99.90;;;;;;4139443;28;20565;-81
2021/12/23 07:04:07;;;;;;;14.70;6.00;;;-0.50;99.90;;;;;;4141858;28;20470;-82
2021/12/23 07:06:09;;;;;;;13.00;6.40;;;-0.50;99.90;;;;;;4142200;28;20462;-82
2021/12/23 07:08:23;;;;;;;12.17;6.13;;;-0.50;99.90;;;;;;4144226;28;20517;-84
2021/12/23 07:10:28;;;;;;;12.30;5.70;;;-0.50;99.90;;;;;;4144720;28;21033;-82
2021/12/23 07:12:30;;;;;;;15.50;6.87;;;-0.50;99.90;;;;;;4144492;28;20461;-79
2021/12/23 07:14:33;;;;;;;14.10;6.43;;;-0.50;99.90;;;;;;4145664;28;20505;-80
2021/12/23 07:16:37;;;;;;;13.37;6.30;;;-0.50;99.90;;;;;;4142066;28;20496;-81
2021/12/23 07:18:39;;;;;;;11.83;5.63;;;-0.40;99.90;;;;;;4144171;28;20838;-80
2021/12/23 07:20:42;;;;;;;12.60;6.13;;;-0.40;99.90;;;;;;4142678;28;20474;-81
2021/12/23 07:22:44;;;;;;;12.70;6.53;;;-0.30;99.90;;;;;;4144433;28;20477;-84
2021/12/23 07:24:46;;;;;;;13.80;6.70;;;-0.40;99.90;;;;;;4143676;28;20912;-79
2021/12/23 07:26:48;;;;;;;14.10;6.77;;;-0.40;99.90;;;;;;4147008;28;21691;-81
2021/12/23 07:28:50;;;;;;;12.50;6.10;;;-0.40;99.90;;;;;;4146901;28;20828;-78
2021/12/23 07:30:55;;;;;;;14.77;6.70;;;-0.40;99.90;;;;;;4149249;28;20465;-80
2021/12/23 07:32:56;;;;;;;13.80;6.40;;;-0.40;99.90;;;;;;4166018;22;20552;-77
2021/12/23 07:34:58;;;;;;;12.40;6.13;;;-0.40;99.90;;;;;;4189146;28;20514;-78
2021/12/23 07:37:00;;;;;;;14.40;7.60;;;-0.40;99.90;;;;;;4188035;28;20524;-77
2021/12/23 07:39:06;;;;;;;14.60;6.87;;;-0.40;99.90;;;;;;4189129;28;20467;-76
2021/12/23 07:41:08;;;;;;;14.67;6.93;;;-0.40;99.90;;;;;;4181842;28;20533;-76
2021/12/23 07:43:31;;;;;;;15.03;6.40;;;-0.30;99.90;;;;;;4180599;28;20490;-77
2021/12/23 07:45:32;;;;;;;14.67;6.83;;;-0.30;99.90;;;;;;4174480;28;20460;-75
2021/12/23 07:47:36;;;;;;;13.90;6.67;;;-0.30;99.90;;;;;;4170033;28;20468;-78
2021/12/23 07:49:38;;;;;;;15.10;7.50;;;-0.30;99.90;;;;;;4175140;28;20477;-77
2021/12/23 07:51:40;;;;;;;14.67;7.37;;;-0.30;99.90;;;;;;4173852;28;20481;-76
2021/12/23 07:53:42;;;;;;;12.93;7.03;;;-0.30;99.90;;;;;;4174926;28;20481;-75
2021/12/23 07:55:44;;;;;;;13.83;6.57;;;-0.20;99.90;;;;;;4174173;28;20499;-76
2021/12/23 07:57:45;;;;;;;12.57;6.50;;;-0.20;99.90;;;;;;4174106;28;20507;-77
2021/12/23 07:59:47;;;;;;;14.83;6.40;;;-0.20;99.90;;;;;;4173629;28;20461;-77
2021/12/23 08:01:49;;;;;;;13.40;6.83;;;-0.20;99.90;;;;;;4172767;28;20449;-75
2021/12/23 08:03:52;;;;;;;14.30;6.60;;;-0.20;99.90;;;;;;4172172;28;20546;-76
2021/12/23 08:05:53;;;;;;;14.47;7.10;;;-0.20;99.90;;;;;;4175062;28;20809;-77
2021/12/23 08:07:55;;;;;;;14.27;7.00;;;-0.20;99.90;;;;;;4175733;28;20495;-76
2021/12/23 08:09:57;;;;;;;14.43;7.63;;;-0.20;99.90;;;;;;4173518;28;20460;-77
2021/12/23 08:12:00;;;;;;;16.07;6.47;;;-0.10;99.90;;;;;;4174351;28;20511;-76
2021/12/23 08:14:02;;;;;;;15.33;7.53;;;-0.10;99.90;;;;;;4176728;28;20488;-78
2021/12/23 08:16:05;;;;;;;14.90;7.20;;;-0.10;99.90;;;;;;4178063;28;20454;-80
2021/12/23 08:18:06;;;;;;;12.47;6.77;;;-0.10;99.90;;;;;;4175528;28;20472;-77
2021/12/23 08:20:11;;;;;;;15.03;7.00;;;-0.10;99.90;;;;;;4175508;28;20522;-80
2021/12/23 08:22:12;;;;;;;15.00;7.27;;;0.00;99.90;;;;;;4176881;28;20460;-79
2021/12/23 08:24:14;;;;;;;15.27;7.30;;;0.00;99.90;;;;;;4176061;28;20474;-76
2021/12/23 08:26:19;;;;;;;13.57;6.87;;;0.00;99.90;;;;;;4175507;28;20449;-79
2021/12/23 08:28:21;;;;;;;15.73;6.90;;;0.00;99.90;;;;;;4173793;28;20475;-76
2021/12/23 08:30:24;;;;;;;17.73;7.30;;;0.00;99.90;;;;;;4174498;28;20532;-77
2021/12/23 08:32:26;;;;;;;18.20;7.67;;;0.10;99.90;;;;;;4176520;28;21056;-77
2021/12/23 08:34:28;;;;;;;14.17;7.60;;;0.10;99.90;;;;;;4178015;28;20500;-77
2021/12/23 08:36:31;;;;;;;15.57;7.53;;;0.10;99.90;;;;;;4175802;28;20497;-79
2021/12/23 08:38:32;;;;;;;14.13;7.10;;;0.10;99.90;;;;;;4176234;28;20462;-77
2021/12/23 08:40:35;;;;;;;16.60;8.10;;;0.10;99.90;;;;;;4176255;28;20531;-76
2021/12/23 08:42:37;;;;;;;15.63;7.73;;;0.20;99.90;;;;;;4175812;28;20485;-76
2021/12/23 08:44:40;;;;;;;14.73;7.93;;;0.20;99.90;;;;;;4173962;28;21272;-78
2021/12/23 08:46:42;;;;;;;18.87;7.60;;;0.20;99.90;;;;;;4175561;28;20454;-78
2021/12/23 08:48:43;;;;;;;18.73;7.60;;;0.20;99.90;;;;;;4174440;28;21091;-73
2021/12/23 08:50:45;;;;;;;16.23;8.10;;;0.30;99.90;;;;;;4175627;28;20460;-74
2021/12/23 08:52:48;;;;;;;15.60;7.50;;;0.30;99.90;;;;;;4173027;28;20466;-74
2021/12/23 08:54:50;;;;;;;16.73;8.17;;;0.30;99.90;;;;;;4173744;28;20540;-77
2021/12/23 08:56:52;;;;;;;15.67;7.50;;;0.30;99.90;;;;;;4172964;28;20532;-78
2021/12/23 08:58:54;;;;;;;15.40;7.87;;;0.30;99.90;;;;;;4174219;28;20876;-75
2021/12/23 09:00:56;;;;;;;20.30;8.53;;;0.30;99.90;;;;;;4172113;28;20854;-74
2021/12/23 09:02:58;;;;;;;18.83;9.27;;;0.30;99.90;;;;;;4174935;28;20488;-73
2021/12/23 09:05:00;;;;;;;17.73;8.60;;;0.30;99.90;;;;;;4175206;28;20528;-75
2021/12/23 09:07:02;;;;;;;18.00;8.30;;;0.40;99.90;;;;;;4175166;28;20906;-76
2021/12/23 09:09:07;;;;;;;18.70;8.07;;;0.40;99.90;;;;;;4174192;28;20484;-77
2021/12/23 09:11:09;;;;;;;16.47;7.70;;;0.40;99.90;;;;;;4171495;28;20465;-73
2021/12/23 09:13:11;;;;;;;17.10;7.90;;;0.40;99.90;;;;;;4175387;28;20550;-75
2021/12/23 09:15:13;;;;;;;16.53;8.33;;;0.40;99.90;;;;;;4175146;28;20457;-76
2021/12/23 09:17:15;;;;;;;15.93;8.50;;;0.40;99.90;;;;;;4174155;28;21048;-74
2021/12/23 09:19:16;;;;;;;18.47;7.93;;;0.40;99.90;;;;;;4174427;28;20477;-73
2021/12/23 09:21:18;;;;;;;15.47;8.23;;;0.40;99.90;;;;;;4172266;28;20519;-75
2021/12/23 09:23:21;;;;;;;16.53;7.67;;;0.50;99.90;;;;;;4174864;28;20990;-75
2021/12/23 09:25:26;;;;;;;17.03;8.63;;;0.50;99.90;;;;;;4173672;28;20685;-76
2021/12/23 09:27:35;;;;;;;16.33;8.57;;;0.50;99.90;;;;;;4174862;28;20495;-77
2021/12/23 09:34:15;;;;;;;18.37;9.30;;;0.60;99.90;;;;;;4174073;28;20473;-74
2021/12/23 09:36:17;;;;;;;20.43;9.33;;;0.60;99.90;;;;;;4174857;28;20551;-77
2021/12/23 09:38:25;;;;;;;18.97;8.90;;;0.60;99.90;;;;;;4173142;28;20490;-76
2021/12/23 09:40:32;;;;;;;18.20;9.23;;;0.60;99.90;;;;;;4174785;28;21048;-74
2021/12/23 09:42:34;;;;;;;18.80;9.47;;;0.60;99.90;;;;;;4173503;28;20457;-75
2021/12/23 09:44:37;;;;;;;21.57;9.33;;;0.60;99.90;;;;;;4174570;28;20468;-77
2021/12/23 09:46:40;;;;;;;15.77;8.63;;;0.60;99.90;;;;;;4172215;28;21039;-76
2021/12/23 09:48:44;;;;;;;19.93;9.17;;;0.60;99.90;;;;;;4173893;28;20465;-77
2021/12/23 09:50:46;;;;;;;17.40;8.63;;;0.60;99.90;;;;;;4175068;28;20864;-75
2021/12/23 09:52:50;;;;;;;16.93;8.97;;;0.60;99.90;;;;;;4173556;28;20465;-76
2021/12/23 09:54:55;;;;;;;20.17;9.23;;;0.70;99.90;;;;;;4173257;28;20536;-80
2021/12/23 09:56:58;;;;;;;18.20;9.00;;;0.70;99.90;;;;;;4174311;28;20527;-77
2021/12/23 09:59:02;;;;;;;19.80;9.50;;;0.70;99.90;;;;;;4172811;28;20506;-76
2021/12/23 10:01:04;;;;;;;23.73;9.37;;;0.60;99.90;;;;;;4173770;28;20460;-77
2021/12/23 10:03:07;;;;;;;21.43;10.13;;;0.70;99.90;;;;;;4173038;28;20869;-75
2021/12/23 10:05:11;;;;;;;16.33;9.37;;;0.60;99.90;;;;;;4172345;28;21023;-75
2021/12/23 10:07:13;;;;;;;21.10;10.53;;;0.70;99.90;;;;;;4171825;28;20465;-77
2021/12/23 10:09:26;;;;;;;19.07;9.60;;;0.70;99.90;;;;;;4174349;28;20967;-77
2021/12/23 10:11:38;;;;;;;18.40;9.27;;;0.70;99.90;;;;;;4172115;28;20518;-75
2021/12/23 10:32:56;;;;;;;20.73;9.63;;;0.80;99.90;;;;;;4174138;28;20776;-77
2021/12/23 10:37:26;;;;;;;17.17;9.30;;;0.80;99.90;;;;;;4171402;28;20492;-77
2021/12/23 10:39:28;;;;;;;24.40;10.63;;;0.80;99.90;;;;;;4172390;28;20472;-77
2021/12/23 10:41:30;;;;;;;26.30;10.97;;;0.80;99.90;;;;;;4172297;28;20457;-77
2021/12/23 10:43:34;;;;;;;19.47;10.57;;;0.90;99.90;;;;;;4172860;28;20510;-79
2021/12/23 10:45:46;;;;;;;21.10;10.13;;;0.90;99.90;;;;;;4171781;28;20542;-78
2021/12/23 10:47:56;;;;;;;20.67;10.67;;;0.90;99.90;;;;;;4172496;28;20462;-76
2021/12/23 10:50:23;;;;;;;20.03;10.33;;;0.90;99.90;;;;;;4172322;28;20497;-76
2021/12/23 10:52:29;;;;;;;18.97;10.30;;;1.00;99.90;;;;;;4172019;28;20543;-76
2021/12/23 10:59:15;;;;;;;21.83;10.37;;;1.00;99.90;;;;;;4137778;28;20525;-77
2021/12/23 11:01:18;;;;;;;19.67;10.20;;;1.00;99.90;;;;;;4170322;28;20469;-76
2021/12/23 11:03:26;;;;;;;24.53;10.73;;;1.10;99.90;;;;;;4173350;28;20539;-77
2021/12/23 11:05:32;;;;;;;20.10;10.03;;;1.10;99.90;;;;;;4173404;28;20465;-77